sensor_id;sensor_type;location;lat;lon;timestamp;P1;durP1;ratioP1;P2;durP2;ratioP2
37069;SDS011;22984;48.862;9.320;2022-10-30T00:01:22;27.00;;;12.10;;
37069;SDS011;22984;48.862;9.320;2022-10-30T00:03:48;22.90;;;10.60;;
37069;SDS011;22984;48.862;9.320;2022-10-30T00:06:14;24.77;;;10.97;;
37069;SDS011;22984;48.862;9.320;2022-10-30T00:08:40;27.67;;;10.30;;
37069;SDS011;22984;48.862;9.320;2022-10-30T00:11:07;23.85;;;10.50;;
37069;SDS011;22984;48.862;9.320;2022-10-30T00:13:33;28.52;;;10.30;;
37069;SDS011;22984;48.862;9.320;2022-10-30T00:16:01;22.70;;;9.68;;
37069;SDS011;22984;48.862;9.320;2022-10-30T00:18:27;23.92;;;10.73;;
37069;SDS011;22984;48.862;9.320;2022-10-30T00:20:53;21.77;;;10.70;;
37069;SDS011;22984;48.862;9.320;2022-10-30T00:23:19;24.47;;;10.60;;
37069;SDS011;22984;48.862;9.320;2022-10-30T00:25:45;18.20;;;10.00;;
37069;SDS011;22984;48.862;9.320;2022-10-30T00:28:11;20.10;;;10.48;;
37069;SDS011;22984;48.862;9.320;2022-10-30T00:30:37;24.25;;;10.65;;
37069;SDS011;22984;48.862;9.320;2022-10-30T00:33:04;21.27;;;10.45;;
37069;SDS011;22984;48.862;9.320;2022-10-30T00:35:30;21.95;;;10.15;;
37069;SDS011;22984;48.862;9.320;2022-10-30T00:37:56;22.20;;;10.77;;
37069;SDS011;22984;48.862;9.320;2022-10-30T00:40:22;25.65;;;10.45;;
37069;SDS011;22984;48.862;9.320;2022-10-30T00:42:48;24.15;;;10.93;;
37069;SDS011;22984;48.862;9.320;2022-10-30T00:45:15;24.05;;;9.98;;
37069;SDS011;22984;48.862;9.320;2022-10-30T00:53:08;19.30;;;9.18;;
37069;SDS011;22984;48.862;9.320;2022-10-30T00:55:36;21.35;;;8.57;;
37069;SDS011;22984;48.862;9.320;2022-10-30T00:58:05;20.23;;;8.73;;
37069;SDS011;22984;48.862;9.320;2022-10-30T01:00:32;18.58;;;7.88;;
37069;SDS011;22984;48.862;9.320;2022-10-30T01:03:00;17.30;;;7.30;;
37069;SDS011;22984;48.862;9.320;2022-10-30T01:05:27;16.67;;;7.38;;
37069;SDS011;22984;48.862;9.320;2022-10-30T01:07:54;17.63;;;7.87;;
37069;SDS011;22984;48.862;9.320;2022-10-30T01:10:20;14.55;;;6.93;;
37069;SDS011;22984;48.862;9.320;2022-10-30T01:12:47;17.75;;;7.32;;
37069;SDS011;22984;48.862;9.320;2022-10-30T01:15:15;14.23;;;6.57;;
37069;SDS011;22984;48.862;9.320;2022-10-30T01:35:47;16.58;;;7.63;;
37069;SDS011;22984;48.862;9.320;2022-10-30T01:38:20;20.73;;;6.90;;
37069;SDS011;22984;48.862;9.320;2022-10-30T01:40:46;20.25;;;7.10;;
37069;SDS011;22984;48.862;9.320;2022-10-30T01:43:12;23.33;;;7.37;;
37069;SDS011;22984;48.862;9.320;2022-10-30T01:50:44;17.15;;;7.05;;
37069;SDS011;22984;48.862;9.320;2022-10-30T01:53:21;18.35;;;7.05;;
37069;SDS011;22984;48.862;9.320;2022-10-30T01:56:03;14.93;;;6.53;;
37069;SDS011;22984;48.862;9.320;2022-10-30T02:01:04;24.23;;;7.63;;
37069;SDS011;22984;48.862;9.320;2022-10-30T02:03:30;20.50;;;5.95;;
37069;SDS011;22984;48.862;9.320;2022-10-30T02:05:56;19.90;;;7.22;;
37069;SDS011;22984;48.862;9.320;2022-10-30T02:08:22;16.88;;;6.70;;
37069;SDS011;22984;48.862;9.320;2022-10-30T02:10:48;18.73;;;6.68;;
37069;SDS011;22984;48.862;9.320;2022-10-30T02:13:15;19.55;;;6.47;;
37069;SDS011;22984;48.862;9.320;2022-10-30T02:15:42;19.20;;;6.37;;
37069;SDS011;22984;48.862;9.320;2022-10-30T02:18:08;18.08;;;6.85;;
37069;SDS011;22984;48.862;9.320;2022-10-30T02:20:34;14.75;;;6.22;;
37069;SDS011;22984;48.862;9.320;2022-10-30T02:23:01;16.90;;;5.78;;
37069;SDS011;22984;48.862;9.320;2022-10-30T02:25:28;15.50;;;6.28;;
37069;SDS011;22984;48.862;9.320;2022-10-30T02:27:54;17.40;;;6.40;;
37069;SDS011;22984;48.862;9.320;2022-10-30T02:30:20;18.00;;;5.87;;
37069;SDS011;22984;48.862;9.320;2022-10-30T02:32:46;13.07;;;5.65;;
37069;SDS011;22984;48.862;9.320;2022-10-30T02:35:12;23.17;;;5.93;;
37069;SDS011;22984;48.862;9.320;2022-10-30T02:37:38;20.73;;;5.78;;
37069;SDS011;22984;48.862;9.320;2022-10-30T02:40:05;16.65;;;5.38;;
37069;SDS011;22984;48.862;9.320;2022-10-30T02:42:34;18.08;;;5.55;;
37069;SDS011;22984;48.862;9.320;2022-10-30T02:45:00;16.83;;;5.45;;
37069;SDS011;22984;48.862;9.320;2022-10-30T02:47:27;12.77;;;5.03;;
37069;SDS011;22984;48.862;9.320;2022-10-30T02:49:53;11.18;;;5.15;;
37069;SDS011;22984;48.862;9.320;2022-10-30T02:52:19;13.25;;;5.40;;
37069;SDS011;22984;48.862;9.320;2022-10-30T02:54:45;15.25;;;5.93;;
37069;SDS011;22984;48.862;9.320;2022-10-30T02:57:11;13.75;;;5.72;;
37069;SDS011;22984;48.862;9.320;2022-10-30T02:59:37;16.20;;;5.27;;
37069;SDS011;22984;48.862;9.320;2022-10-30T03:02:03;17.17;;;5.72;;
37069;SDS011;22984;48.862;9.320;2022-10-30T03:04:29;26.40;;;7.03;;
37069;SDS011;22984;48.862;9.320;2022-10-30T03:06:55;20.10;;;6.53;;
37069;SDS011;22984;48.862;9.320;2022-10-30T03:09:21;14.10;;;6.20;;
37069;SDS011;22984;48.862;9.320;2022-10-30T03:11:53;19.33;;;6.72;;
37069;SDS011;22984;48.862;9.320;2022-10-30T03:14:19;16.00;;;6.38;;
37069;SDS011;22984;48.862;9.320;2022-10-30T03:16:45;20.08;;;7.20;;
37069;SDS011;22984;48.862;9.320;2022-10-30T03:19:11;14.02;;;6.70;;
37069;SDS011;22984;48.862;9.320;2022-10-30T03:21:37;17.83;;;6.95;;
37069;SDS011;22984;48.862;9.320;2022-10-30T03:24:04;16.95;;;6.53;;
37069;SDS011;22984;48.862;9.320;2022-10-30T03:26:31;17.00;;;7.18;;
37069;SDS011;22984;48.862;9.320;2022-10-30T03:28:57;14.07;;;6.55;;
37069;SDS011;22984;48.862;9.320;2022-10-30T03:31:23;18.10;;;7.72;;
37069;SDS011;22984;48.862;9.320;2022-10-30T03:33:49;16.57;;;7.20;;
37069;SDS011;22984;48.862;9.320;2022-10-30T03:36:16;21.80;;;7.05;;
37069;SDS011;22984;48.862;9.320;2022-10-30T03:38:42;16.60;;;6.57;;
37069;SDS011;22984;48.862;9.320;2022-10-30T03:41:08;16.92;;;7.50;;
37069;SDS011;22984;48.862;9.320;2022-10-30T03:43:34;18.33;;;7.68;;
37069;SDS011;22984;48.862;9.320;2022-10-30T03:46:00;16.38;;;7.13;;
37069;SDS011;22984;48.862;9.320;2022-10-30T03:48:27;25.73;;;7.38;;
37069;SDS011;22984;48.862;9.320;2022-10-30T03:50:53;14.75;;;7.03;;
37069;SDS011;22984;48.862;9.320;2022-10-30T03:53:20;15.98;;;7.13;;
37069;SDS011;22984;48.862;9.320;2022-10-30T03:55:47;19.58;;;8.20;;
37069;SDS011;22984;48.862;9.320;2022-10-30T03:58:14;25.33;;;8.13;;
37069;SDS011;22984;48.862;9.320;2022-10-30T04:00:40;25.35;;;7.90;;
37069;SDS011;22984;48.862;9.320;2022-10-30T04:03:07;18.98;;;8.27;;
37069;SDS011;22984;48.862;9.320;2022-10-30T04:05:33;23.15;;;8.13;;
37069;SDS011;22984;48.862;9.320;2022-10-30T04:08:00;22.98;;;8.10;;
37069;SDS011;22984;48.862;9.320;2022-10-30T04:10:26;22.33;;;7.38;;
37069;SDS011;22984;48.862;9.320;2022-10-30T04:12:58;18.33;;;8.18;;
37069;SDS011;22984;48.862;9.320;2022-10-30T04:15:24;20.70;;;7.55;;
37069;SDS011;22984;48.862;9.320;2022-10-30T04:17:50;18.58;;;7.75;;
37069;SDS011;22984;48.862;9.320;2022-10-30T04:20:16;24.77;;;7.67;;
37069;SDS011;22984;48.862;9.320;2022-10-30T04:22:43;17.37;;;8.23;;
37069;SDS011;22984;48.862;9.320;2022-10-30T04:25:09;19.25;;;8.05;;
37069;SDS011;22984;48.862;9.320;2022-10-30T04:27:41;22.35;;;8.10;;
37069;SDS011;22984;48.862;9.320;2022-10-30T04:30:08;21.55;;;8.93;;
37069;SDS011;22984;48.862;9.320;2022-10-30T04:32:35;18.13;;;7.68;;
37069;SDS011;22984;48.862;9.320;2022-10-30T04:35:01;19.55;;;8.25;;
37069;SDS011;22984;48.862;9.320;2022-10-30T04:37:28;21.63;;;8.65;;
37069;SDS011;22984;48.862;9.320;2022-10-30T04:39:54;23.30;;;8.75;;
37069;SDS011;22984;48.862;9.320;2022-10-30T04:42:20;17.13;;;8.52;;
37069;SDS011;22984;48.862;9.320;2022-10-30T04:44:46;19.08;;;8.48;;
37069;SDS011;22984;48.862;9.320;2022-10-30T04:47:12;25.52;;;8.32;;
37069;SDS011;22984;48.862;9.320;2022-10-30T04:49:41;22.02;;;8.35;;
37069;SDS011;22984;48.862;9.320;2022-10-30T04:52:07;22.10;;;9.73;;
37069;SDS011;22984;48.862;9.320;2022-10-30T04:54:33;21.60;;;9.55;;
37069;SDS011;22984;48.862;9.320;2022-10-30T04:56:59;19.65;;;8.40;;
37069;SDS011;22984;48.862;9.320;2022-10-30T04:59:25;25.60;;;9.45;;
37069;SDS011;22984;48.862;9.320;2022-10-30T05:01:51;18.97;;;8.90;;
37069;SDS011;22984;48.862;9.320;2022-10-30T05:04:17;15.52;;;9.20;;
37069;SDS011;22984;48.862;9.320;2022-10-30T05:06:43;18.75;;;9.95;;
37069;SDS011;22984;48.862;9.320;2022-10-30T05:09:09;20.90;;;9.52;;
37069;SDS011;22984;48.862;9.320;2022-10-30T05:11:35;23.00;;;10.35;;
37069;SDS011;22984;48.862;9.320;2022-10-30T05:14:01;24.13;;;9.93;;
37069;SDS011;22984;48.862;9.320;2022-10-30T05:16:27;24.58;;;10.73;;
37069;SDS011;22984;48.862;9.320;2022-10-30T05:18:53;25.88;;;10.93;;
37069;SDS011;22984;48.862;9.320;2022-10-30T05:21:19;19.95;;;10.02;;
37069;SDS011;22984;48.862;9.320;2022-10-30T05:23:45;19.95;;;9.07;;
37069;SDS011;22984;48.862;9.320;2022-10-30T05:26:11;18.55;;;9.23;;
37069;SDS011;22984;48.862;9.320;2022-10-30T05:28:37;20.00;;;9.13;;
37069;SDS011;22984;48.862;9.320;2022-10-30T05:31:04;19.13;;;8.52;;
37069;SDS011;22984;48.862;9.320;2022-10-30T05:33:30;21.80;;;10.57;;
37069;SDS011;22984;48.862;9.320;2022-10-30T05:35:56;20.77;;;9.85;;
37069;SDS011;22984;48.862;9.320;2022-10-30T05:38:22;24.33;;;10.73;;
37069;SDS011;22984;48.862;9.320;2022-10-30T05:40:48;24.65;;;9.88;;
37069;SDS011;22984;48.862;9.320;2022-10-30T05:43:14;21.67;;;9.77;;
37069;SDS011;22984;48.862;9.320;2022-10-30T05:45:40;20.80;;;8.90;;
37069;SDS011;22984;48.862;9.320;2022-10-30T05:48:06;16.75;;;8.60;;
37069;SDS011;22984;48.862;9.320;2022-10-30T05:50:32;22.95;;;9.02;;
37069;SDS011;22984;48.862;9.320;2022-10-30T05:52:59;21.50;;;9.45;;
37069;SDS011;22984;48.862;9.320;2022-10-30T05:55:25;27.60;;;10.35;;
37069;SDS011;22984;48.862;9.320;2022-10-30T05:57:55;26.27;;;9.27;;
37069;SDS011;22984;48.862;9.320;2022-10-30T06:00:22;20.85;;;9.35;;
37069;SDS011;22984;48.862;9.320;2022-10-30T06:02:48;18.13;;;9.63;;
37069;SDS011;22984;48.862;9.320;2022-10-30T06:05:14;18.88;;;8.73;;
37069;SDS011;22984;48.862;9.320;2022-10-30T06:07:40;19.93;;;8.23;;
37069;SDS011;22984;48.862;9.320;2022-10-30T06:10:06;15.80;;;7.97;;
37069;SDS011;22984;48.862;9.320;2022-10-30T06:12:32;18.23;;;7.78;;
37069;SDS011;22984;48.862;9.320;2022-10-30T06:14:58;17.48;;;6.95;;
37069;SDS011;22984;48.862;9.320;2022-10-30T06:17:24;15.68;;;7.20;;
37069;SDS011;22984;48.862;9.320;2022-10-30T06:19:50;21.23;;;8.18;;
37069;SDS011;22984;48.862;9.320;2022-10-30T06:22:16;23.77;;;7.53;;
37069;SDS011;22984;48.862;9.320;2022-10-30T06:24:42;21.38;;;7.07;;
37069;SDS011;22984;48.862;9.320;2022-10-30T06:27:08;15.98;;;7.60;;
37069;SDS011;22984;48.862;9.320;2022-10-30T06:29:34;15.80;;;6.57;;
37069;SDS011;22984;48.862;9.320;2022-10-30T06:32:00;14.68;;;7.28;;
37069;SDS011;22984;48.862;9.320;2022-10-30T06:34:26;13.95;;;6.78;;
37069;SDS011;22984;48.862;9.320;2022-10-30T06:36:52;22.40;;;7.82;;
37069;SDS011;22984;48.862;9.320;2022-10-30T06:39:18;20.17;;;7.40;;
37069;SDS011;22984;48.862;9.320;2022-10-30T06:41:44;15.30;;;7.40;;
37069;SDS011;22984;48.862;9.320;2022-10-30T06:44:10;16.92;;;7.10;;
37069;SDS011;22984;48.862;9.320;2022-10-30T06:46:36;15.98;;;6.50;;
37069;SDS011;22984;48.862;9.320;2022-10-30T06:49:02;14.68;;;6.20;;
37069;SDS011;22984;48.862;9.320;2022-10-30T06:51:28;14.40;;;6.57;;
37069;SDS011;22984;48.862;9.320;2022-10-30T06:53:54;17.83;;;6.50;;
37069;SDS011;22984;48.862;9.320;2022-10-30T06:56:20;21.52;;;6.88;;
37069;SDS011;22984;48.862;9.320;2022-10-30T06:58:46;20.63;;;7.15;;
37069;SDS011;22984;48.862;9.320;2022-10-30T07:01:12;13.38;;;6.68;;
37069;SDS011;22984;48.862;9.320;2022-10-30T07:03:38;17.45;;;6.63;;
37069;SDS011;22984;48.862;9.320;2022-10-30T07:06:04;15.57;;;7.07;;
37069;SDS011;22984;48.862;9.320;2022-10-30T07:08:30;15.20;;;6.55;;
37069;SDS011;22984;48.862;9.320;2022-10-30T07:10:56;22.15;;;6.43;;
37069;SDS011;22984;48.862;9.320;2022-10-30T07:13:23;15.67;;;6.50;;
37069;SDS011;22984;48.862;9.320;2022-10-30T07:15:49;14.40;;;6.65;;
37069;SDS011;22984;48.862;9.320;2022-10-30T07:18:15;17.27;;;6.97;;
37069;SDS011;22984;48.862;9.320;2022-10-30T07:20:41;15.40;;;6.65;;
37069;SDS011;22984;48.862;9.320;2022-10-30T07:23:07;16.40;;;6.43;;
37069;SDS011;22984;48.862;9.320;2022-10-30T07:25:33;17.63;;;6.75;;
37069;SDS011;22984;48.862;9.320;2022-10-30T07:27:59;19.02;;;6.32;;
37069;SDS011;22984;48.862;9.320;2022-10-30T07:30:25;16.25;;;5.95;;
37069;SDS011;22984;48.862;9.320;2022-10-30T07:32:59;11.65;;;6.43;;
37069;SDS011;22984;48.862;9.320;2022-10-30T07:35:25;12.00;;;5.68;;
37069;SDS011;22984;48.862;9.320;2022-10-30T07:37:51;12.07;;;5.97;;
37069;SDS011;22984;48.862;9.320;2022-10-30T07:40:17;16.98;;;6.20;;
37069;SDS011;22984;48.862;9.320;2022-10-30T07:42:44;16.97;;;6.00;;
37069;SDS011;22984;48.862;9.320;2022-10-30T07:45:10;13.85;;;6.40;;
37069;SDS011;22984;48.862;9.320;2022-10-30T07:47:39;16.70;;;7.28;;
37069;SDS011;22984;48.862;9.320;2022-10-30T07:50:06;17.70;;;7.68;;
37069;SDS011;22984;48.862;9.320;2022-10-30T07:52:32;15.85;;;6.57;;
37069;SDS011;22984;48.862;9.320;2022-10-30T07:54:58;23.15;;;8.32;;
37069;SDS011;22984;48.862;9.320;2022-10-30T07:57:24;12.60;;;7.22;;
37069;SDS011;22984;48.862;9.320;2022-10-30T07:59:50;11.95;;;6.72;;
37069;SDS011;22984;48.862;9.320;2022-10-30T08:02:16;17.73;;;6.80;;
37069;SDS011;22984;48.862;9.320;2022-10-30T08:04:42;18.05;;;7.03;;
37069;SDS011;22984;48.862;9.320;2022-10-30T08:07:08;15.07;;;7.78;;
37069;SDS011;22984;48.862;9.320;2022-10-30T08:09:34;18.02;;;6.10;;
37069;SDS011;22984;48.862;9.320;2022-10-30T08:12:00;16.70;;;6.38;;
37069;SDS011;22984;48.862;9.320;2022-10-30T08:14:26;13.90;;;6.60;;
37069;SDS011;22984;48.862;9.320;2022-10-30T08:16:52;13.20;;;5.97;;
37069;SDS011;22984;48.862;9.320;2022-10-30T08:19:18;17.23;;;7.03;;
37069;SDS011;22984;48.862;9.320;2022-10-30T08:21:44;10.68;;;4.57;;
37069;SDS011;22984;48.862;9.320;2022-10-30T08:24:10;16.75;;;5.38;;
37069;SDS011;22984;48.862;9.320;2022-10-30T08:26:36;11.40;;;4.57;;
37069;SDS011;22984;48.862;9.320;2022-10-30T08:29:02;13.47;;;5.60;;
37069;SDS011;22984;48.862;9.320;2022-10-30T08:31:29;13.75;;;4.80;;
37069;SDS011;22984;48.862;9.320;2022-10-30T08:33:55;22.08;;;5.90;;
37069;SDS011;22984;48.862;9.320;2022-10-30T08:36:21;14.48;;;5.13;;
37069;SDS011;22984;48.862;9.320;2022-10-30T08:38:47;15.27;;;5.30;;
37069;SDS011;22984;48.862;9.320;2022-10-30T08:41:13;14.20;;;5.13;;
37069;SDS011;22984;48.862;9.320;2022-10-30T08:43:39;12.73;;;4.60;;
37069;SDS011;22984;48.862;9.320;2022-10-30T08:46:05;11.70;;;4.50;;
37069;SDS011;22984;48.862;9.320;2022-10-30T08:48:31;14.10;;;4.25;;
37069;SDS011;22984;48.862;9.320;2022-10-30T08:50:57;11.05;;;4.75;;
37069;SDS011;22984;48.862;9.320;2022-10-30T08:53:25;15.65;;;4.15;;
37069;SDS011;22984;48.862;9.320;2022-10-30T08:55:51;13.23;;;4.53;;
37069;SDS011;22984;48.862;9.320;2022-10-30T08:58:17;9.57;;;4.00;;
37069;SDS011;22984;48.862;9.320;2022-10-30T09:00:43;14.27;;;4.35;;
37069;SDS011;22984;48.862;9.320;2022-10-30T09:03:09;13.57;;;4.57;;
37069;SDS011;22984;48.862;9.320;2022-10-30T09:05:35;13.68;;;4.32;;
37069;SDS011;22984;48.862;9.320;2022-10-30T09:08:02;12.70;;;4.45;;
37069;SDS011;22984;48.862;9.320;2022-10-30T09:10:28;13.68;;;3.78;;
37069;SDS011;22984;48.862;9.320;2022-10-30T09:12:57;10.98;;;3.75;;
37069;SDS011;22984;48.862;9.320;2022-10-30T09:15:25;10.32;;;4.13;;
37069;SDS011;22984;48.862;9.320;2022-10-30T09:17:58;9.80;;;4.82;;
37069;SDS011;22984;48.862;9.320;2022-10-30T09:20:25;15.73;;;4.47;;
37069;SDS011;22984;48.862;9.320;2022-10-30T09:22:51;12.18;;;4.47;;
37069;SDS011;22984;48.862;9.320;2022-10-30T09:25:18;8.10;;;3.83;;
37069;SDS011;22984;48.862;9.320;2022-10-30T09:27:44;14.07;;;4.40;;
37069;SDS011;22984;48.862;9.320;2022-10-30T09:30:11;10.98;;;4.07;;
37069;SDS011;22984;48.862;9.320;2022-10-30T09:32:37;12.05;;;4.05;;
37069;SDS011;22984;48.862;9.320;2022-10-30T09:35:03;9.15;;;3.58;;
37069;SDS011;22984;48.862;9.320;2022-10-30T09:37:32;10.07;;;4.25;;
37069;SDS011;22984;48.862;9.320;2022-10-30T09:39:58;13.65;;;4.35;;
37069;SDS011;22984;48.862;9.320;2022-10-30T09:42:41;8.63;;;3.50;;
37069;SDS011;22984;48.862;9.320;2022-10-30T09:50:34;13.07;;;3.57;;
37069;SDS011;22984;48.862;9.320;2022-10-30T09:55:39;9.60;;;3.60;;
37069;SDS011;22984;48.862;9.320;2022-10-30T10:00:36;9.50;;;3.40;;
37069;SDS011;22984;48.862;9.320;2022-10-30T10:05:42;11.27;;;3.72;;
37069;SDS011;22984;48.862;9.320;2022-10-30T10:08:12;19.05;;;3.22;;
37069;SDS011;22984;48.862;9.320;2022-10-30T10:10:51;10.85;;;3.40;;
37069;SDS011;22984;48.862;9.320;2022-10-30T10:15:54;7.80;;;3.17;;
37069;SDS011;22984;48.862;9.320;2022-10-30T10:18:25;8.60;;;3.22;;
37069;SDS011;22984;48.862;9.320;2022-10-30T10:20:55;14.18;;;3.20;;
37069;SDS011;22984;48.862;9.320;2022-10-30T10:23:28;14.33;;;3.13;;
37069;SDS011;22984;48.862;9.320;2022-10-30T10:25:55;7.32;;;3.05;;
37069;SDS011;22984;48.862;9.320;2022-10-30T10:28:32;11.05;;;3.25;;
37069;SDS011;22984;48.862;9.320;2022-10-30T10:34:23;8.77;;;3.47;;
37069;SDS011;22984;48.862;9.320;2022-10-30T10:39:45;11.23;;;3.95;;
37069;SDS011;22984;48.862;9.320;2022-10-30T10:50:23;16.70;;;3.67;;
37069;SDS011;22984;48.862;9.320;2022-10-30T10:53:00;11.98;;;3.25;;
37069;SDS011;22984;48.862;9.320;2022-10-30T10:55:32;12.25;;;3.30;;
37069;SDS011;22984;48.862;9.320;2022-10-30T10:58:03;13.07;;;3.90;;
37069;SDS011;22984;48.862;9.320;2022-10-30T11:00:30;10.30;;;2.92;;
37069;SDS011;22984;48.862;9.320;2022-10-30T11:03:09;10.10;;;3.65;;
37069;SDS011;22984;48.862;9.320;2022-10-30T11:05:38;9.82;;;2.95;;
37069;SDS011;22984;48.862;9.320;2022-10-30T11:08:12;9.98;;;2.85;;
37069;SDS011;22984;48.862;9.320;2022-10-30T11:10:39;9.03;;;2.80;;
37069;SDS011;22984;48.862;9.320;2022-10-30T11:13:06;13.43;;;3.35;;
37069;SDS011;22984;48.862;9.320;2022-10-30T11:15:40;9.87;;;3.33;;
37069;SDS011;22984;48.862;9.320;2022-10-30T11:18:09;10.20;;;3.08;;
37069;SDS011;22984;48.862;9.320;2022-10-30T11:25:52;11.48;;;3.75;;
37069;SDS011;22984;48.862;9.320;2022-10-30T11:28:25;11.02;;;3.92;;
37069;SDS011;22984;48.862;9.320;2022-10-30T11:30:56;9.73;;;3.38;;
37069;SDS011;22984;48.862;9.320;2022-10-30T11:33:39;11.37;;;3.30;;
37069;SDS011;22984;48.862;9.320;2022-10-30T11:36:08;14.73;;;3.55;;
37069;SDS011;22984;48.862;9.320;2022-10-30T11:38:34;9.45;;;3.35;;
37069;SDS011;22984;48.862;9.320;2022-10-30T11:41:00;10.43;;;3.30;;
37069;SDS011;22984;48.862;9.320;2022-10-30T11:43:26;11.57;;;3.03;;
37069;SDS011;22984;48.862;9.320;2022-10-30T11:45:53;16.25;;;3.53;;
37069;SDS011;22984;48.862;9.320;2022-10-30T11:48:24;15.27;;;3.95;;
37069;SDS011;22984;48.862;9.320;2022-10-30T11:50:51;15.85;;;3.65;;
37069;SDS011;22984;48.862;9.320;2022-10-30T11:53:21;8.88;;;3.05;;
37069;SDS011;22984;48.862;9.320;2022-10-30T11:55:48;9.35;;;3.05;;
37069;SDS011;22984;48.862;9.320;2022-10-30T11:58:24;11.23;;;2.73;;
37069;SDS011;22984;48.862;9.320;2022-10-30T12:01:03;11.15;;;3.35;;
37069;SDS011;22984;48.862;9.320;2022-10-30T12:03:34;8.00;;;2.80;;
37069;SDS011;22984;48.862;9.320;2022-10-30T12:06:08;9.50;;;2.75;;
37069;SDS011;22984;48.862;9.320;2022-10-30T12:08:34;8.00;;;3.37;;
37069;SDS011;22984;48.862;9.320;2022-10-30T12:11:00;8.75;;;3.15;;
37069;SDS011;22984;48.862;9.320;2022-10-30T12:13:30;11.02;;;3.10;;
37069;SDS011;22984;48.862;9.320;2022-10-30T12:16:14;12.90;;;3.17;;
37069;SDS011;22984;48.862;9.320;2022-10-30T12:18:40;9.70;;;3.60;;
37069;SDS011;22984;48.862;9.320;2022-10-30T12:21:07;11.40;;;3.28;;
37069;SDS011;22984;48.862;9.320;2022-10-30T12:23:33;12.02;;;3.83;;
37069;SDS011;22984;48.862;9.320;2022-10-30T12:26:00;11.50;;;3.63;;
37069;SDS011;22984;48.862;9.320;2022-10-30T12:28:30;13.93;;;3.20;;
37069;SDS011;22984;48.862;9.320;2022-10-30T12:31:02;11.70;;;3.13;;
37069;SDS011;22984;48.862;9.320;2022-10-30T12:33:34;8.32;;;2.90;;
37069;SDS011;22984;48.862;9.320;2022-10-30T12:36:02;8.98;;;2.90;;
37069;SDS011;22984;48.862;9.320;2022-10-30T12:38:44;10.45;;;3.20;;
37069;SDS011;22984;48.862;9.320;2022-10-30T12:41:25;6.45;;;2.83;;
37069;SDS011;22984;48.862;9.320;2022-10-30T12:44:09;8.35;;;2.92;;
37069;SDS011;22984;48.862;9.320;2022-10-30T12:49:28;10.52;;;3.20;;
37069;SDS011;22984;48.862;9.320;2022-10-30T12:52:14;12.75;;;3.10;;
37069;SDS011;22984;48.862;9.320;2022-10-30T12:54:43;8.43;;;3.38;;
37069;SDS011;22984;48.862;9.320;2022-10-30T12:57:16;8.20;;;3.35;;
37069;SDS011;22984;48.862;9.320;2022-10-30T13:00:00;7.57;;;2.92;;
37069;SDS011;22984;48.862;9.320;2022-10-30T13:05:06;6.73;;;2.83;;
37069;SDS011;22984;48.862;9.320;2022-10-30T13:07:39;9.07;;;3.05;;
37069;SDS011;22984;48.862;9.320;2022-10-30T13:10:29;7.78;;;3.10;;
37069;SDS011;22984;48.862;9.320;2022-10-30T13:12:56;9.88;;;2.50;;
37069;SDS011;22984;48.862;9.320;2022-10-30T13:15:27;12.88;;;3.20;;
37069;SDS011;22984;48.862;9.320;2022-10-30T13:17:57;8.43;;;3.45;;
37069;SDS011;22984;48.862;9.320;2022-10-30T13:20:24;7.13;;;3.17;;
37069;SDS011;22984;48.862;9.320;2022-10-30T13:23:05;9.60;;;4.47;;
37069;SDS011;22984;48.862;9.320;2022-10-30T13:25:50;10.50;;;4.35;;
37069;SDS011;22984;48.862;9.320;2022-10-30T13:28:24;9.82;;;3.17;;
37069;SDS011;22984;48.862;9.320;2022-10-30T13:31:04;13.23;;;4.22;;
37069;SDS011;22984;48.862;9.320;2022-10-30T13:33:35;12.88;;;4.88;;
37069;SDS011;22984;48.862;9.320;2022-10-30T13:36:10;12.57;;;5.18;;
37069;SDS011;22984;48.862;9.320;2022-10-30T13:38:50;9.93;;;4.70;;
37069;SDS011;22984;48.862;9.320;2022-10-30T13:41:31;8.57;;;5.07;;
37069;SDS011;22984;48.862;9.320;2022-10-30T13:56:54;9.15;;;3.78;;
37069;SDS011;22984;48.862;9.320;2022-10-30T14:02:02;13.10;;;3.42;;
37069;SDS011;22984;48.862;9.320;2022-10-30T14:04:33;11.98;;;4.80;;
37069;SDS011;22984;48.862;9.320;2022-10-30T14:07:09;9.57;;;3.28;;
37069;SDS011;22984;48.862;9.320;2022-10-30T14:09:47;9.60;;;3.55;;
37069;SDS011;22984;48.862;9.320;2022-10-30T14:15:02;10.52;;;2.70;;
37069;SDS011;22984;48.862;9.320;2022-10-30T14:17:29;7.63;;;2.90;;
37069;SDS011;22984;48.862;9.320;2022-10-30T14:22:30;12.80;;;3.38;;
37069;SDS011;22984;48.862;9.320;2022-10-30T14:24:56;13.43;;;3.13;;
37069;SDS011;22984;48.862;9.320;2022-10-30T14:27:27;10.68;;;3.13;;
37069;SDS011;22984;48.862;9.320;2022-10-30T14:29:53;9.65;;;3.00;;
37069;SDS011;22984;48.862;9.320;2022-10-30T14:39:48;14.80;;;3.60;;
37069;SDS011;22984;48.862;9.320;2022-10-30T14:52:39;12.43;;;3.13;;
37069;SDS011;22984;48.862;9.320;2022-10-30T14:55:17;15.38;;;4.03;;
37069;SDS011;22984;48.862;9.320;2022-10-30T14:57:53;10.38;;;3.40;;
37069;SDS011;22984;48.862;9.320;2022-10-30T15:08:21;10.15;;;2.70;;
37069;SDS011;22984;48.862;9.320;2022-10-30T15:13:27;16.65;;;3.75;;
37069;SDS011;22984;48.862;9.320;2022-10-30T15:15:57;14.95;;;3.53;;
37069;SDS011;22984;48.862;9.320;2022-10-30T15:18:24;12.65;;;3.40;;
37069;SDS011;22984;48.862;9.320;2022-10-30T15:20:50;15.10;;;3.20;;
37069;SDS011;22984;48.862;9.320;2022-10-30T15:23:24;11.15;;;3.13;;
37069;SDS011;22984;48.862;9.320;2022-10-30T15:25:53;17.67;;;5.00;;
37069;SDS011;22984;48.862;9.320;2022-10-30T15:28:30;14.73;;;5.23;;
37069;SDS011;22984;48.862;9.320;2022-10-30T15:31:04;13.60;;;6.80;;
37069;SDS011;22984;48.862;9.320;2022-10-30T15:33:31;19.13;;;6.80;;
37069;SDS011;22984;48.862;9.320;2022-10-30T15:35:59;18.63;;;5.97;;
37069;SDS011;22984;48.862;9.320;2022-10-30T15:38:25;11.05;;;5.43;;
37069;SDS011;22984;48.862;9.320;2022-10-30T15:41:00;14.75;;;5.93;;
37069;SDS011;22984;48.862;9.320;2022-10-30T15:43:30;12.93;;;5.78;;
37069;SDS011;22984;48.862;9.320;2022-10-30T15:45:58;9.70;;;5.32;;
37069;SDS011;22984;48.862;9.320;2022-10-30T15:48:31;16.40;;;5.18;;
37069;SDS011;22984;48.862;9.320;2022-10-30T15:51:17;14.82;;;4.90;;
37069;SDS011;22984;48.862;9.320;2022-10-30T15:53:47;20.45;;;5.32;;
37069;SDS011;22984;48.862;9.320;2022-10-30T15:58:54;13.93;;;4.78;;
37069;SDS011;22984;48.862;9.320;2022-10-30T16:04:17;19.15;;;5.82;;
37069;SDS011;22984;48.862;9.320;2022-10-30T16:06:53;14.73;;;6.07;;
37069;SDS011;22984;48.862;9.320;2022-10-30T16:09:19;12.65;;;5.47;;
37069;SDS011;22984;48.862;9.320;2022-10-30T16:11:46;16.63;;;6.45;;
37069;SDS011;22984;48.862;9.320;2022-10-30T16:14:13;16.23;;;6.68;;
37069;SDS011;22984;48.862;9.320;2022-10-30T16:16:40;20.63;;;7.10;;
37069;SDS011;22984;48.862;9.320;2022-10-30T16:19:10;20.35;;;6.97;;
37069;SDS011;22984;48.862;9.320;2022-10-30T16:21:44;15.37;;;6.00;;
37069;SDS011;22984;48.862;9.320;2022-10-30T16:24:10;11.15;;;5.82;;
37069;SDS011;22984;48.862;9.320;2022-10-30T16:26:36;18.37;;;5.73;;
37069;SDS011;22984;48.862;9.320;2022-10-30T16:31:38;11.77;;;4.82;;
37069;SDS011;22984;48.862;9.320;2022-10-30T16:34:08;15.23;;;5.45;;
37069;SDS011;22984;48.862;9.320;2022-10-30T16:36:36;13.93;;;4.80;;
37069;SDS011;22984;48.862;9.320;2022-10-30T16:39:03;12.27;;;4.80;;
37069;SDS011;22984;48.862;9.320;2022-10-30T16:41:31;20.05;;;5.38;;
37069;SDS011;22984;48.862;9.320;2022-10-30T16:44:24;18.27;;;4.67;;
37069;SDS011;22984;48.862;9.320;2022-10-30T16:46:48;11.93;;;5.05;;
37069;SDS011;22984;48.862;9.320;2022-10-30T16:49:20;16.92;;;5.65;;
37069;SDS011;22984;48.862;9.320;2022-10-30T16:51:49;11.68;;;5.47;;